sensor_id;sensor_type;location;lat;lon;timestamp;P1;durP1;ratioP1;P2;durP2;ratioP2
27039;SDS011;14589;51.578;7.306;2022-07-23T00:00:29;5.05;;;3.05;;
27039;SDS011;14589;51.578;7.306;2022-07-23T00:02:55;8.07;;;3.30;;
27039;SDS011;14589;51.578;7.306;2022-07-23T00:05:20;6.28;;;3.10;;
27039;SDS011;14589;51.578;7.306;2022-07-23T00:07:46;9.93;;;4.03;;
27039;SDS011;14589;51.578;7.306;2022-07-23T00:10:11;8.90;;;4.38;;
27039;SDS011;14589;51.578;7.306;2022-07-23T00:12:37;5.43;;;3.40;;
27039;SDS011;14589;51.578;7.306;2022-07-23T00:15:04;5.57;;;4.00;;
27039;SDS011;14589;51.578;7.306;2022-07-23T00:17:30;6.07;;;3.63;;
27039;SDS011;14589;51.578;7.306;2022-07-23T00:19:56;6.60;;;3.65;;
27039;SDS011;14589;51.578;7.306;2022-07-23T00:22:21;4.55;;;3.38;;
27039;SDS011;14589;51.578;7.306;2022-07-23T00:24:47;6.97;;;4.00;;
27039;SDS011;14589;51.578;7.306;2022-07-23T00:27:12;6.82;;;3.90;;
27039;SDS011;14589;51.578;7.306;2022-07-23T00:29:38;5.55;;;3.65;;
27039;SDS011;14589;51.578;7.306;2022-07-23T00:32:03;6.95;;;4.00;;
27039;SDS011;14589;51.578;7.306;2022-07-23T00:34:29;4.35;;;3.50;;
27039;SDS011;14589;51.578;7.306;2022-07-23T00:36:54;5.10;;;3.30;;
27039;SDS011;14589;51.578;7.306;2022-07-23T00:39:20;4.75;;;3.50;;
27039;SDS011;14589;51.578;7.306;2022-07-23T00:41:48;9.18;;;4.30;;
27039;SDS011;14589;51.578;7.306;2022-07-23T00:44:14;6.43;;;4.40;;
27039;SDS011;14589;51.578;7.306;2022-07-23T00:46:48;6.38;;;4.00;;
27039;SDS011;14589;51.578;7.306;2022-07-23T00:49:18;7.88;;;4.35;;
27039;SDS011;14589;51.578;7.306;2022-07-23T00:51:47;6.40;;;4.18;;
27039;SDS011;14589;51.578;7.306;2022-07-23T00:54:13;11.38;;;4.55;;
27039;SDS011;14589;51.578;7.306;2022-07-23T00:56:39;9.60;;;4.60;;
27039;SDS011;14589;51.578;7.306;2022-07-23T00:59:06;8.00;;;4.20;;
27039;SDS011;14589;51.578;7.306;2022-07-23T01:01:32;6.47;;;4.78;;
27039;SDS011;14589;51.578;7.306;2022-07-23T01:03:57;7.75;;;4.32;;
27039;SDS011;14589;51.578;7.306;2022-07-23T01:06:23;5.82;;;4.10;;
27039;SDS011;14589;51.578;7.306;2022-07-23T01:08:48;9.40;;;4.88;;
27039;SDS011;14589;51.578;7.306;2022-07-23T01:11:14;8.98;;;4.28;;
27039;SDS011;14589;51.578;7.306;2022-07-23T01:13:40;4.88;;;3.75;;
27039;SDS011;14589;51.578;7.306;2022-07-23T01:16:08;8.00;;;4.72;;
27039;SDS011;14589;51.578;7.306;2022-07-23T01:18:34;6.82;;;4.50;;
27039;SDS011;14589;51.578;7.306;2022-07-23T01:20:59;7.03;;;4.50;;
27039;SDS011;14589;51.578;7.306;2022-07-23T01:23:25;7.15;;;4.43;;
27039;SDS011;14589;51.578;7.306;2022-07-23T01:25:55;10.13;;;5.28;;
27039;SDS011;14589;51.578;7.306;2022-07-23T01:28:22;8.00;;;5.30;;
27039;SDS011;14589;51.578;7.306;2022-07-23T01:30:49;7.30;;;4.63;;
27039;SDS011;14589;51.578;7.306;2022-07-23T01:33:14;7.25;;;4.82;;
27039;SDS011;14589;51.578;7.306;2022-07-23T01:35:40;10.63;;;5.68;;
27039;SDS011;14589;51.578;7.306;2022-07-23T01:38:07;9.50;;;5.80;;
27039;SDS011;14589;51.578;7.306;2022-07-23T01:40:34;6.82;;;4.88;;
27039;SDS011;14589;51.578;7.306;2022-07-23T01:42:59;7.70;;;4.63;;
27039;SDS011;14589;51.578;7.306;2022-07-23T01:45:25;5.85;;;4.97;;
27039;SDS011;14589;51.578;7.306;2022-07-23T01:47:51;7.10;;;4.82;;
27039;SDS011;14589;51.578;7.306;2022-07-23T01:50:16;8.95;;;5.85;;
27039;SDS011;14589;51.578;7.306;2022-07-23T01:52:46;8.50;;;6.03;;
27039;SDS011;14589;51.578;7.306;2022-07-23T01:55:12;6.35;;;4.78;;
27039;SDS011;14589;51.578;7.306;2022-07-23T01:57:41;7.53;;;4.88;;
27039;SDS011;14589;51.578;7.306;2022-07-23T02:00:06;8.90;;;5.28;;
27039;SDS011;14589;51.578;7.306;2022-07-23T02:02:38;9.07;;;5.80;;
27039;SDS011;14589;51.578;7.306;2022-07-23T02:05:04;6.75;;;4.78;;
27039;SDS011;14589;51.578;7.306;2022-07-23T02:07:29;7.22;;;4.80;;
27039;SDS011;14589;51.578;7.306;2022-07-23T02:09:57;7.88;;;5.43;;
27039;SDS011;14589;51.578;7.306;2022-07-23T02:12:23;5.28;;;4.75;;
27039;SDS011;14589;51.578;7.306;2022-07-23T02:14:48;6.53;;;5.22;;
27039;SDS011;14589;51.578;7.306;2022-07-23T02:17:13;9.30;;;6.20;;
27039;SDS011;14589;51.578;7.306;2022-07-23T02:19:39;12.27;;;7.30;;
27039;SDS011;14589;51.578;7.306;2022-07-23T02:22:04;13.07;;;6.93;;
27039;SDS011;14589;51.578;7.306;2022-07-23T02:24:29;12.13;;;7.50;;
27039;SDS011;14589;51.578;7.306;2022-07-23T02:26:55;9.80;;;6.47;;
27039;SDS011;14589;51.578;7.306;2022-07-23T02:29:20;13.80;;;7.30;;
27039;SDS011;14589;51.578;7.306;2022-07-23T02:31:46;11.95;;;7.85;;
27039;SDS011;14589;51.578;7.306;2022-07-23T02:34:11;10.38;;;7.10;;
27039;SDS011;14589;51.578;7.306;2022-07-23T02:36:37;10.23;;;6.47;;
27039;SDS011;14589;51.578;7.306;2022-07-23T02:39:04;11.52;;;6.30;;
27039;SDS011;14589;51.578;7.306;2022-07-23T02:41:32;10.85;;;5.85;;
27039;SDS011;14589;51.578;7.306;2022-07-23T02:43:57;7.65;;;6.03;;
27039;SDS011;14589;51.578;7.306;2022-07-23T02:46:23;8.88;;;6.50;;
27039;SDS011;14589;51.578;7.306;2022-07-23T02:48:48;9.00;;;6.38;;
27039;SDS011;14589;51.578;7.306;2022-07-23T02:51:14;9.15;;;6.43;;
27039;SDS011;14589;51.578;7.306;2022-07-23T02:53:42;8.38;;;5.72;;
27039;SDS011;14589;51.578;7.306;2022-07-23T02:56:08;12.05;;;6.18;;
27039;SDS011;14589;51.578;7.306;2022-07-23T02:58:34;12.02;;;6.63;;
27039;SDS011;14589;51.578;7.306;2022-07-23T03:01:00;8.55;;;5.97;;
27039;SDS011;14589;51.578;7.306;2022-07-23T03:03:26;8.68;;;6.35;;
27039;SDS011;14589;51.578;7.306;2022-07-23T03:05:51;9.00;;;6.50;;
27039;SDS011;14589;51.578;7.306;2022-07-23T03:08:17;11.75;;;6.55;;
27039;SDS011;14589;51.578;7.306;2022-07-23T03:10:48;10.52;;;6.50;;
27039;SDS011;14589;51.578;7.306;2022-07-23T03:13:13;6.63;;;5.22;;
27039;SDS011;14589;51.578;7.306;2022-07-23T03:15:39;7.88;;;6.00;;
27039;SDS011;14589;51.578;7.306;2022-07-23T03:18:04;7.88;;;5.97;;
27039;SDS011;14589;51.578;7.306;2022-07-23T03:20:30;9.40;;;5.93;;
27039;SDS011;14589;51.578;7.306;2022-07-23T03:22:55;8.13;;;5.85;;
27039;SDS011;14589;51.578;7.306;2022-07-23T03:25:21;8.88;;;6.10;;
27039;SDS011;14589;51.578;7.306;2022-07-23T03:27:47;7.47;;;6.13;;
27039;SDS011;14589;51.578;7.306;2022-07-23T03:30:12;8.82;;;5.85;;
27039;SDS011;14589;51.578;7.306;2022-07-23T03:32:39;10.07;;;5.43;;
27039;SDS011;14589;51.578;7.306;2022-07-23T03:35:04;8.05;;;5.57;;
27039;SDS011;14589;51.578;7.306;2022-07-23T03:37:31;6.85;;;5.40;;
27039;SDS011;14589;51.578;7.306;2022-07-23T03:39:58;6.95;;;5.20;;
27039;SDS011;14589;51.578;7.306;2022-07-23T03:42:23;7.43;;;5.53;;
27039;SDS011;14589;51.578;7.306;2022-07-23T03:44:49;9.07;;;6.13;;
27039;SDS011;14589;51.578;7.306;2022-07-23T03:47:15;7.55;;;5.95;;
27039;SDS011;14589;51.578;7.306;2022-07-23T03:49:43;6.00;;;5.10;;
27039;SDS011;14589;51.578;7.306;2022-07-23T03:52:09;10.23;;;5.97;;
27039;SDS011;14589;51.578;7.306;2022-07-23T03:54:34;6.30;;;5.28;;
27039;SDS011;14589;51.578;7.306;2022-07-23T03:57:00;8.88;;;5.43;;
27039;SDS011;14589;51.578;7.306;2022-07-23T03:59:27;7.68;;;5.38;;
27039;SDS011;14589;51.578;7.306;2022-07-23T04:01:53;7.53;;;5.65;;
27039;SDS011;14589;51.578;7.306;2022-07-23T04:04:18;9.27;;;5.85;;
27039;SDS011;14589;51.578;7.306;2022-07-23T04:06:44;7.72;;;5.75;;
27039;SDS011;14589;51.578;7.306;2022-07-23T04:09:09;8.23;;;5.80;;
27039;SDS011;14589;51.578;7.306;2022-07-23T04:11:35;8.93;;;5.70;;
27039;SDS011;14589;51.578;7.306;2022-07-23T04:14:01;9.35;;;6.65;;
27039;SDS011;14589;51.578;7.306;2022-07-23T04:16:26;8.02;;;5.70;;
27039;SDS011;14589;51.578;7.306;2022-07-23T04:18:53;8.32;;;5.55;;
27039;SDS011;14589;51.578;7.306;2022-07-23T04:21:20;9.25;;;6.35;;
27039;SDS011;14589;51.578;7.306;2022-07-23T04:23:47;6.93;;;5.53;;
27039;SDS011;14589;51.578;7.306;2022-07-23T04:26:13;6.78;;;5.55;;
27039;SDS011;14589;51.578;7.306;2022-07-23T04:28:39;7.82;;;5.80;;
27039;SDS011;14589;51.578;7.306;2022-07-23T04:31:04;8.40;;;5.70;;
27039;SDS011;14589;51.578;7.306;2022-07-23T04:33:31;8.23;;;5.35;;
27039;SDS011;14589;51.578;7.306;2022-07-23T04:35:58;9.23;;;5.60;;
27039;SDS011;14589;51.578;7.306;2022-07-23T04:38:24;7.53;;;5.90;;
27039;SDS011;14589;51.578;7.306;2022-07-23T04:40:53;8.25;;;5.43;;
27039;SDS011;14589;51.578;7.306;2022-07-23T04:43:18;7.55;;;5.47;;
27039;SDS011;14589;51.578;7.306;2022-07-23T04:45:47;7.57;;;5.95;;
27039;SDS011;14589;51.578;7.306;2022-07-23T04:48:13;10.23;;;6.43;;
27039;SDS011;14589;51.578;7.306;2022-07-23T04:50:38;8.40;;;6.32;;
27039;SDS011;14589;51.578;7.306;2022-07-23T04:53:04;10.25;;;6.57;;
27039;SDS011;14589;51.578;7.306;2022-07-23T04:55:30;8.48;;;6.40;;
27039;SDS011;14589;51.578;7.306;2022-07-23T04:57:56;9.48;;;6.68;;
27039;SDS011;14589;51.578;7.306;2022-07-23T05:00:22;11.18;;;6.07;;
27039;SDS011;14589;51.578;7.306;2022-07-23T05:02:48;8.18;;;5.95;;
27039;SDS011;14589;51.578;7.306;2022-07-23T05:05:13;9.05;;;6.07;;
27039;SDS011;14589;51.578;7.306;2022-07-23T05:07:40;8.82;;;6.05;;
27039;SDS011;14589;51.578;7.306;2022-07-23T05:10:06;7.70;;;5.55;;
27039;SDS011;14589;51.578;7.306;2022-07-23T05:12:31;9.63;;;5.78;;
27039;SDS011;14589;51.578;7.306;2022-07-23T05:14:57;11.32;;;7.43;;
27039;SDS011;14589;51.578;7.306;2022-07-23T05:17:24;13.95;;;8.27;;
27039;SDS011;14589;51.578;7.306;2022-07-23T05:19:50;10.20;;;8.05;;
27039;SDS011;14589;51.578;7.306;2022-07-23T05:22:15;11.02;;;7.50;;
27039;SDS011;14589;51.578;7.306;2022-07-23T05:24:42;11.32;;;7.03;;
27039;SDS011;14589;51.578;7.306;2022-07-23T05:27:08;10.68;;;7.28;;
27039;SDS011;14589;51.578;7.306;2022-07-23T05:29:33;8.90;;;6.07;;
27039;SDS011;14589;51.578;7.306;2022-07-23T05:31:59;13.45;;;8.65;;
27039;SDS011;14589;51.578;7.306;2022-07-23T05:34:26;12.07;;;8.23;;
27039;SDS011;14589;51.578;7.306;2022-07-23T05:36:52;8.90;;;6.88;;
27039;SDS011;14589;51.578;7.306;2022-07-23T05:39:17;11.48;;;7.88;;
27039;SDS011;14589;51.578;7.306;2022-07-23T05:41:43;14.40;;;8.75;;
27039;SDS011;14589;51.578;7.306;2022-07-23T05:44:08;11.45;;;7.93;;
27039;SDS011;14589;51.578;7.306;2022-07-23T05:46:38;10.25;;;7.60;;
27039;SDS011;14589;51.578;7.306;2022-07-23T05:49:06;11.55;;;7.25;;
27039;SDS011;14589;51.578;7.306;2022-07-23T05:51:51;11.25;;;8.30;;
27039;SDS011;14589;51.578;7.306;2022-07-23T05:54:24;12.30;;;7.85;;
27039;SDS011;14589;51.578;7.306;2022-07-23T05:56:50;13.07;;;9.25;;
27039;SDS011;14589;51.578;7.306;2022-07-23T05:59:15;15.32;;;8.80;;
27039;SDS011;14589;51.578;7.306;2022-07-23T06:01:41;11.65;;;7.22;;
27039;SDS011;14589;51.578;7.306;2022-07-23T06:04:09;10.70;;;7.47;;
27039;SDS011;14589;51.578;7.306;2022-07-23T06:06:37;8.60;;;6.18;;
27039;SDS011;14589;51.578;7.306;2022-07-23T06:09:05;11.63;;;7.60;;
27039;SDS011;14589;51.578;7.306;2022-07-23T06:11:30;14.05;;;7.93;;
27039;SDS011;14589;51.578;7.306;2022-07-23T06:13:56;13.00;;;8.70;;
27039;SDS011;14589;51.578;7.306;2022-07-23T06:16:29;11.45;;;7.65;;
27039;SDS011;14589;51.578;7.306;2022-07-23T06:18:55;15.77;;;9.68;;
27039;SDS011;14589;51.578;7.306;2022-07-23T06:21:20;11.60;;;8.77;;
27039;SDS011;14589;51.578;7.306;2022-07-23T06:23:46;10.95;;;7.18;;
27039;SDS011;14589;51.578;7.306;2022-07-23T06:26:11;12.25;;;7.75;;
27039;SDS011;14589;51.578;7.306;2022-07-23T06:28:37;14.82;;;9.98;;
27039;SDS011;14589;51.578;7.306;2022-07-23T06:31:02;16.60;;;8.73;;
27039;SDS011;14589;51.578;7.306;2022-07-23T06:33:28;9.20;;;7.70;;
27039;SDS011;14589;51.578;7.306;2022-07-23T06:35:53;11.60;;;8.52;;
27039;SDS011;14589;51.578;7.306;2022-07-23T06:38:19;18.08;;;9.73;;
27039;SDS011;14589;51.578;7.306;2022-07-23T06:40:45;14.77;;;10.38;;
27039;SDS011;14589;51.578;7.306;2022-07-23T06:43:11;12.38;;;9.70;;
27039;SDS011;14589;51.578;7.306;2022-07-23T06:45:36;15.75;;;10.07;;
27039;SDS011;14589;51.578;7.306;2022-07-23T06:48:02;20.10;;;13.63;;
27039;SDS011;14589;51.578;7.306;2022-07-23T06:50:28;22.90;;;13.40;;
27039;SDS011;14589;51.578;7.306;2022-07-23T06:52:54;21.05;;;12.32;;
27039;SDS011;14589;51.578;7.306;2022-07-23T06:55:20;18.13;;;11.30;;
27039;SDS011;14589;51.578;7.306;2022-07-23T06:57:46;16.98;;;10.88;;
27039;SDS011;14589;51.578;7.306;2022-07-23T07:00:11;18.40;;;10.35;;
27039;SDS011;14589;51.578;7.306;2022-07-23T07:02:37;15.52;;;9.95;;
27039;SDS011;14589;51.578;7.306;2022-07-23T07:05:04;14.88;;;8.68;;
27039;SDS011;14589;51.578;7.306;2022-07-23T07:07:29;14.27;;;9.35;;
27039;SDS011;14589;51.578;7.306;2022-07-23T07:09:55;17.95;;;10.00;;
27039;SDS011;14589;51.578;7.306;2022-07-23T07:12:20;13.98;;;9.77;;
27039;SDS011;14589;51.578;7.306;2022-07-23T07:14:46;16.48;;;9.40;;
27039;SDS011;14589;51.578;7.306;2022-07-23T07:17:11;16.67;;;9.38;;
27039;SDS011;14589;51.578;7.306;2022-07-23T07:19:37;13.73;;;9.05;;
27039;SDS011;14589;51.578;7.306;2022-07-23T07:22:02;16.40;;;9.32;;
27039;SDS011;14589;51.578;7.306;2022-07-23T07:24:27;14.90;;;8.75;;
27039;SDS011;14589;51.578;7.306;2022-07-23T07:26:53;16.13;;;10.10;;
27039;SDS011;14589;51.578;7.306;2022-07-23T07:29:18;15.98;;;9.27;;
27039;SDS011;14589;51.578;7.306;2022-07-23T07:31:44;19.90;;;9.60;;
27039;SDS011;14589;51.578;7.306;2022-07-23T07:34:09;13.32;;;8.82;;
27039;SDS011;14589;51.578;7.306;2022-07-23T07:36:35;13.20;;;7.47;;
27039;SDS011;14589;51.578;7.306;2022-07-23T07:39:03;19.90;;;7.82;;
27039;SDS011;14589;51.578;7.306;2022-07-23T07:41:30;11.20;;;6.30;;
27039;SDS011;14589;51.578;7.306;2022-07-23T07:43:55;11.18;;;6.82;;
27039;SDS011;14589;51.578;7.306;2022-07-23T07:46:21;9.85;;;6.50;;
27039;SDS011;14589;51.578;7.306;2022-07-23T07:48:49;11.07;;;6.50;;
27039;SDS011;14589;51.578;7.306;2022-07-23T07:51:15;12.45;;;5.97;;
27039;SDS011;14589;51.578;7.306;2022-07-23T07:53:40;12.40;;;6.20;;
27039;SDS011;14589;51.578;7.306;2022-07-23T07:56:06;7.90;;;5.10;;
27039;SDS011;14589;51.578;7.306;2022-07-23T07:58:31;9.25;;;6.00;;
27039;SDS011;14589;51.578;7.306;2022-07-23T08:00:57;9.52;;;5.25;;
27039;SDS011;14589;51.578;7.306;2022-07-23T08:03:22;9.20;;;5.07;;
27039;SDS011;14589;51.578;7.306;2022-07-23T08:05:47;9.30;;;4.85;;
27039;SDS011;14589;51.578;7.306;2022-07-23T08:08:13;9.05;;;5.22;;
27039;SDS011;14589;51.578;7.306;2022-07-23T08:10:41;6.80;;;4.20;;
27039;SDS011;14589;51.578;7.306;2022-07-23T08:13:07;7.00;;;4.40;;
27039;SDS011;14589;51.578;7.306;2022-07-23T08:15:32;7.30;;;3.75;;
27039;SDS011;14589;51.578;7.306;2022-07-23T08:17:57;6.05;;;4.03;;
27039;SDS011;14589;51.578;7.306;2022-07-23T08:20:23;10.15;;;3.90;;
27039;SDS011;14589;51.578;7.306;2022-07-23T08:22:50;4.65;;;3.22;;
27039;SDS011;14589;51.578;7.306;2022-07-23T08:25:24;6.88;;;3.40;;
27039;SDS011;14589;51.578;7.306;2022-07-23T08:27:54;7.72;;;3.47;;
27039;SDS011;14589;51.578;7.306;2022-07-23T08:30:19;5.97;;;3.60;;
27039;SDS011;14589;51.578;7.306;2022-07-23T08:32:49;6.25;;;3.25;;
27039;SDS011;14589;51.578;7.306;2022-07-23T08:35:17;9.15;;;3.80;;
27039;SDS011;14589;51.578;7.306;2022-07-23T08:37:46;8.20;;;3.05;;
27039;SDS011;14589;51.578;7.306;2022-07-23T08:40:12;6.93;;;3.08;;
27039;SDS011;14589;51.578;7.306;2022-07-23T08:42:37;4.95;;;3.03;;
27039;SDS011;14589;51.578;7.306;2022-07-23T08:45:03;6.25;;;3.35;;
27039;SDS011;14589;51.578;7.306;2022-07-23T08:47:29;7.68;;;3.80;;
27039;SDS011;14589;51.578;7.306;2022-07-23T08:49:55;6.43;;;3.25;;
27039;SDS011;14589;51.578;7.306;2022-07-23T08:52:21;5.70;;;3.38;;
27039;SDS011;14589;51.578;7.306;2022-07-23T08:54:47;7.20;;;4.10;;
27039;SDS011;14589;51.578;7.306;2022-07-23T08:57:13;3.88;;;3.03;;
27039;SDS011;14589;51.578;7.306;2022-07-23T08:59:39;6.35;;;3.40;;
27039;SDS011;14589;51.578;7.306;2022-07-23T09:02:05;5.43;;;3.97;;
27039;SDS011;14589;51.578;7.306;2022-07-23T09:04:31;7.05;;;4.80;;
27039;SDS011;14589;51.578;7.306;2022-07-23T09:06:56;7.40;;;5.00;;
27039;SDS011;14589;51.578;7.306;2022-07-23T09:09:21;7.47;;;5.13;;
27039;SDS011;14589;51.578;7.306;2022-07-23T09:11:47;6.70;;;5.22;;
27039;SDS011;14589;51.578;7.306;2022-07-23T09:14:13;6.80;;;4.80;;
27039;SDS011;14589;51.578;7.306;2022-07-23T09:16:39;5.53;;;5.00;;
27039;SDS011;14589;51.578;7.306;2022-07-23T09:19:05;6.38;;;4.18;;
27039;SDS011;14589;51.578;7.306;2022-07-23T09:21:32;8.07;;;4.55;;
27039;SDS011;14589;51.578;7.306;2022-07-23T09:29:01;12.25;;;4.80;;
27039;SDS011;14589;51.578;7.306;2022-07-23T09:31:43;6.70;;;3.40;;
27039;SDS011;14589;51.578;7.306;2022-07-23T09:36:37;8.40;;;5.22;;
27039;SDS011;14589;51.578;7.306;2022-07-23T09:39:03;8.45;;;5.00;;
27039;SDS011;14589;51.578;7.306;2022-07-23T09:41:37;8.02;;;5.22;;
27039;SDS011;14589;51.578;7.306;2022-07-23T09:44:11;11.77;;;4.88;;
27039;SDS011;14589;51.578;7.306;2022-07-23T09:46:37;5.60;;;4.35;;
27039;SDS011;14589;51.578;7.306;2022-07-23T09:49:15;7.00;;;4.53;;
27039;SDS011;14589;51.578;7.306;2022-07-23T09:51:54;4.95;;;3.22;;
27039;SDS011;14589;51.578;7.306;2022-07-23T09:56:48;4.78;;;3.35;;
27039;SDS011;14589;51.578;7.306;2022-07-23T09:59:14;9.75;;;4.07;;
27039;SDS011;14589;51.578;7.306;2022-07-23T10:01:42;7.22;;;4.22;;
27039;SDS011;14589;51.578;7.306;2022-07-23T10:04:09;6.60;;;3.45;;
27039;SDS011;14589;51.578;7.306;2022-07-23T10:06:58;5.70;;;4.22;;
27039;SDS011;14589;51.578;7.306;2022-07-23T10:09:43;3.75;;;3.05;;
27039;SDS011;14589;51.578;7.306;2022-07-23T10:12:32;4.55;;;3.47;;
27039;SDS011;14589;51.578;7.306;2022-07-23T10:15:22;3.35;;;2.80;;
27039;SDS011;14589;51.578;7.306;2022-07-23T10:17:50;4.40;;;2.80;;
27039;SDS011;14589;51.578;7.306;2022-07-23T10:20:15;3.85;;;2.45;;
27039;SDS011;14589;51.578;7.306;2022-07-23T10:30:30;2.83;;;2.63;;
27039;SDS011;14589;51.578;7.306;2022-07-23T10:35:36;2.67;;;2.45;;
27039;SDS011;14589;51.578;7.306;2022-07-23T10:38:13;3.90;;;2.60;;
27039;SDS011;14589;51.578;7.306;2022-07-23T10:41:03;5.00;;;3.22;;
27039;SDS011;14589;51.578;7.306;2022-07-23T10:43:29;2.83;;;2.40;;
27039;SDS011;14589;51.578;7.306;2022-07-23T10:45:56;6.45;;;3.22;;
27039;SDS011;14589;51.578;7.306;2022-07-23T10:49:31;4.60;;;2.75;;
27039;SDS011;14589;51.578;7.306;2022-07-23T10:54:42;3.00;;;2.67;;
27039;SDS011;14589;51.578;7.306;2022-07-23T10:57:08;3.22;;;2.10;;
27039;SDS011;14589;51.578;7.306;2022-07-23T11:02:30;3.22;;;2.33;;
27039;SDS011;14589;51.578;7.306;2022-07-23T11:05:00;5.18;;;2.47;;
27039;SDS011;14589;51.578;7.306;2022-07-23T11:07:27;5.32;;;3.30;;
27039;SDS011;14589;51.578;7.306;2022-07-23T11:09:53;3.05;;;2.25;;
27039;SDS011;14589;51.578;7.306;2022-07-23T11:17:33;3.53;;;2.35;;
27039;SDS011;14589;51.578;7.306;2022-07-23T11:22:39;5.82;;;2.40;;
27039;SDS011;14589;51.578;7.306;2022-07-23T11:25:08;2.92;;;2.22;;
27039;SDS011;14589;51.578;7.306;2022-07-23T11:30:04;2.40;;;1.70;;
27039;SDS011;14589;51.578;7.306;2022-07-23T11:32:32;2.17;;;1.92;;
27039;SDS011;14589;51.578;7.306;2022-07-23T11:35:00;3.13;;;2.20;;
27039;SDS011;14589;51.578;7.306;2022-07-23T11:37:36;5.13;;;2.38;;
27039;SDS011;14589;51.578;7.306;2022-07-23T11:40:04;3.05;;;1.88;;
27039;SDS011;14589;51.578;7.306;2022-07-23T11:42:33;4.38;;;2.28;;
27039;SDS011;14589;51.578;7.306;2022-07-23T11:45:00;2.58;;;1.67;;
27039;SDS011;14589;51.578;7.306;2022-07-23T11:47:26;2.78;;;1.60;;
27039;SDS011;14589;51.578;7.306;2022-07-23T11:49:52;3.28;;;1.90;;
27039;SDS011;14589;51.578;7.306;2022-07-23T11:52:22;1.92;;;1.70;;
27039;SDS011;14589;51.578;7.306;2022-07-23T11:54:57;2.40;;;1.70;;
27039;SDS011;14589;51.578;7.306;2022-07-23T11:57:31;5.57;;;1.85;;
27039;SDS011;14589;51.578;7.306;2022-07-23T12:00:11;4.63;;;1.85;;
27039;SDS011;14589;51.578;7.306;2022-07-23T12:02:45;5.13;;;1.70;;
27039;SDS011;14589;51.578;7.306;2022-07-23T12:05:18;1.90;;;1.80;;
27039;SDS011;14589;51.578;7.306;2022-07-23T12:07:48;4.63;;;2.17;;
27039;SDS011;14589;51.578;7.306;2022-07-23T12:15:32;2.97;;;1.60;;
27039;SDS011;14589;51.578;7.306;2022-07-23T12:18:03;1.92;;;1.48;;
27039;SDS011;14589;51.578;7.306;2022-07-23T12:20:33;1.58;;;1.35;;
27039;SDS011;14589;51.578;7.306;2022-07-23T12:23:01;1.80;;;1.48;;
27039;SDS011;14589;51.578;7.306;2022-07-23T12:25:29;6.00;;;1.65;;
27039;SDS011;14589;51.578;7.306;2022-07-23T12:28:01;1.70;;;1.60;;
27039;SDS011;14589;51.578;7.306;2022-07-23T12:33:10;2.17;;;1.40;;
27039;SDS011;14589;51.578;7.306;2022-07-23T12:35:39;2.47;;;1.83;;
27039;SDS011;14589;51.578;7.306;2022-07-23T12:38:10;2.63;;;1.30;;
27039;SDS011;14589;51.578;7.306;2022-07-23T12:43:20;1.92;;;1.50;;
27039;SDS011;14589;51.578;7.306;2022-07-23T12:48:40;3.03;;;1.60;;
27039;SDS011;14589;51.578;7.306;2022-07-23T12:51:19;2.45;;;1.25;;
27039;SDS011;14589;51.578;7.306;2022-07-23T12:53:47;1.65;;;1.42;;
27039;SDS011;14589;51.578;7.306;2022-07-23T12:56:28;4.05;;;1.63;;
27039;SDS011;14589;51.578;7.306;2022-07-23T12:58:56;3.22;;;1.48;;
27039;SDS011;14589;51.578;7.306;2022-07-23T13:01:23;2.00;;;1.58;;
27039;SDS011;14589;51.578;7.306;2022-07-23T13:03:55;1.92;;;1.40;;
27039;SDS011;14589;51.578;7.306;2022-07-23T13:06:21;1.30;;;1.20;;
27039;SDS011;14589;51.578;7.306;2022-07-23T13:08:47;1.38;;;1.27;;
27039;SDS011;14589;51.578;7.306;2022-07-23T13:11:12;2.28;;;1.65;;
27039;SDS011;14589;51.578;7.306;2022-07-23T13:13:38;1.88;;;1.40;;
27039;SDS011;14589;51.578;7.306;2022-07-23T13:16:03;1.90;;;1.80;;
27039;SDS011;14589;51.578;7.306;2022-07-23T13:18:29;3.42;;;1.70;;
27039;SDS011;14589;51.578;7.306;2022-07-23T13:20:56;3.20;;;1.98;;
27039;SDS011;14589;51.578;7.306;2022-07-23T13:23:21;2.60;;;1.98;;
27039;SDS011;14589;51.578;7.306;2022-07-23T13:25:47;3.30;;;2.00;;
27039;SDS011;14589;51.578;7.306;2022-07-23T13:28:13;6.00;;;2.42;;
27039;SDS011;14589;51.578;7.306;2022-07-23T13:30:40;2.05;;;1.83;;
27039;SDS011;14589;51.578;7.306;2022-07-23T13:33:05;1.52;;;1.42;;
27039;SDS011;14589;51.578;7.306;2022-07-23T13:35:33;2.08;;;1.63;;
27039;SDS011;14589;51.578;7.306;2022-07-23T13:38:02;1.77;;;1.42;;
27039;SDS011;14589;51.578;7.306;2022-07-23T13:40:29;1.83;;;1.73;;
27039;SDS011;14589;51.578;7.306;2022-07-23T13:42:54;1.88;;;1.70;;
27039;SDS011;14589;51.578;7.306;2022-07-23T13:45:20;2.85;;;1.67;;
27039;SDS011;14589;51.578;7.306;2022-07-23T13:47:46;2.08;;;1.60;;
27039;SDS011;14589;51.578;7.306;2022-07-23T13:50:11;2.22;;;1.77;;
27039;SDS011;14589;51.578;7.306;2022-07-23T13:52:37;3.22;;;1.65;;
27039;SDS011;14589;51.578;7.306;2022-07-23T13:55:03;2.30;;;1.75;;
27039;SDS011;14589;51.578;7.306;2022-07-23T13:57:30;3.42;;;1.75;;
27039;SDS011;14589;51.578;7.306;2022-07-23T13:59:56;3.20;;;1.80;;
27039;SDS011;14589;51.578;7.306;2022-07-23T14:02:21;3.22;;;2.13;;
27039;SDS011;14589;51.578;7.306;2022-07-23T14:04:47;1.63;;;1.48;;
27039;SDS011;14589;51.578;7.306;2022-07-23T14:07:13;2.95;;;1.80;;
27039;SDS011;14589;51.578;7.306;2022-07-23T14:09:38;1.67;;;1.58;;
27039;SDS011;14589;51.578;7.306;2022-07-23T14:12:04;2.95;;;1.98;;
27039;SDS011;14589;51.578;7.306;2022-07-23T14:14:30;6.00;;;2.00;;
27039;SDS011;14589;51.578;7.306;2022-07-23T14:16:55;2.33;;;2.13;;
27039;SDS011;14589;51.578;7.306;2022-07-23T14:19:21;3.58;;;1.85;;
27039;SDS011;14589;51.578;7.306;2022-07-23T14:21:46;1.65;;;1.55;;
27039;SDS011;14589;51.578;7.306;2022-07-23T14:24:13;6.97;;;2.03;;
27039;SDS011;14589;51.578;7.306;2022-07-23T14:26:39;2.25;;;2.03;;
27039;SDS011;14589;51.578;7.306;2022-07-23T14:29:05;4.35;;;1.63;;
27039;SDS011;14589;51.578;7.306;2022-07-23T14:31:30;3.13;;;1.88;;
27039;SDS011;14589;51.578;7.306;2022-07-23T14:33:56;3.70;;;1.73;;
27039;SDS011;14589;51.578;7.306;2022-07-23T14:36:21;3.05;;;2.10;;
27039;SDS011;14589;51.578;7.306;2022-07-23T14:38:47;2.13;;;1.77;;
27039;SDS011;14589;51.578;7.306;2022-07-23T14:41:12;2.38;;;1.95;;
27039;SDS011;14589;51.578;7.306;2022-07-23T14:43:38;2.72;;;1.92;;
27039;SDS011;14589;51.578;7.306;2022-07-23T14:46:04;2.03;;;1.65;;
27039;SDS011;14589;51.578;7.306;2022-07-23T14:48:30;3.33;;;2.53;;
27039;SDS011;14589;51.578;7.306;2022-07-23T14:50:55;4.70;;;2.10;;
27039;SDS011;14589;51.578;7.306;2022-07-23T14:53:20;2.78;;;2.05;;
27039;SDS011;14589;51.578;7.306;2022-07-23T14:55:46;2.97;;;1.98;;
27039;SDS011;14589;51.578;7.306;2022-07-23T14:58:11;2.50;;;2.10;;
27039;SDS011;14589;51.578;7.306;2022-07-23T15:00:37;3.70;;;1.98;;
27039;SDS011;14589;51.578;7.306;2022-07-23T15:03:02;2.67;;;2.03;;
27039;SDS011;14589;51.578;7.306;2022-07-23T15:05:28;2.90;;;2.25;;
27039;SDS011;14589;51.578;7.306;2022-07-23T15:07:54;3.35;;;2.47;;
27039;SDS011;14589;51.578;7.306;2022-07-23T15:10:20;4.53;;;2.42;;
27039;SDS011;14589;51.578;7.306;2022-07-23T15:12:45;3.50;;;2.13;;
27039;SDS011;14589;51.578;7.306;2022-07-23T15:15:11;3.33;;;2.20;;
27039;SDS011;14589;51.578;7.306;2022-07-23T15:17:38;3.30;;;1.65;;
27039;SDS011;14589;51.578;7.306;2022-07-23T15:20:03;6.45;;;2.10;;
27039;SDS011;14589;51.578;7.306;2022-07-23T15:22:29;4.75;;;2.22;;
27039;SDS011;14589;51.578;7.306;2022-07-23T15:24:55;3.15;;;2.00;;
27039;SDS011;14589;51.578;7.306;2022-07-23T15:27:20;4.05;;;2.20;;
27039;SDS011;14589;51.578;7.306;2022-07-23T15:29:46;3.13;;;2.47;;
27039;SDS011;14589;51.578;7.306;2022-07-23T15:32:11;2.60;;;2.10;;